Back to Top

Language: 

My Weather Underground Personal Weather Station Historical Data with Graphs...

Delerius Weather Station Historical Data
Daily Summary for January 4, 2017 Units:  Both    English   Metric
« Previous Day
Next Day »
Daily Weekly Monthly Yearly Custom
  High: Low: Average:
Temperature: 44.8 °F /  7.1 °C 31.0 °F /  -0.6 °C 39.6 °F /  4.2 °C
Dew Point: 42.2 °F /  5.7 °C 26.8 °F /  -2.9 °C 32 °F /  0 °C
Humidity: 91 % 57 % 75 %
Wind Speed: 10.0 mph /  16.1 km/h - 4.8 mph /  7.7 km/h
Wind Gust: 29.0 mph /  46.7 km/h - -
Wind:- - WNW
Pressure: 30.49 in /  1032.4 hPa 30.15 in /  1020.9 hPa -
Precipitation: 0.00 in /  0 mm    
Historical Graphs
 
 
Tabular Data for January 4, 2017
Time Temperature Dew Point Pressure Wind Wind Speed Wind Gust Humidity Rainfall Rate (Hourly) solar Conditions
00:00 44.5 °F /  6.9 °C 42.0 °F /  5.6 °C 30.15 in /  1020.9 hPa WNW 8.0 mph /  12.9 km/h 29.0 mph /  46.7 km/h 91 % 0.00 in /  0 mm 0 W/m2
00:05 44.4 °F /  6.9 °C 41.9 °F /  5.5 °C 30.15 in /  1020.9 hPa WNW 8.0 mph /  12.9 km/h 29.0 mph /  46.7 km/h 91 % 0.00 in /  0 mm 0 W/m2
00:10 44.4 °F /  6.9 °C 41.9 °F /  5.5 °C 30.15 in /  1020.9 hPa NW 8.0 mph /  12.9 km/h 8.0 mph /  12.9 km/h 91 % 0.00 in /  0 mm 0 W/m2
00:15 44.3 °F /  6.8 °C 41.8 °F /  5.4 °C 30.15 in /  1020.9 hPa NW 8.0 mph /  12.9 km/h 9.0 mph /  14.5 km/h 91 % 0.00 in /  0 mm 0 W/m2
00:25 44.4 °F /  6.9 °C 41.9 °F /  5.5 °C 30.16 in /  1021.2 hPa WNW 9.0 mph /  14.5 km/h 29.0 mph /  46.7 km/h 91 % 0.00 in /  0 mm 0 W/m2
00:35 44.7 °F /  7.1 °C 42.2 °F /  5.7 °C 30.16 in /  1021.2 hPa NW 10.0 mph /  16.1 km/h 29.0 mph /  46.7 km/h 91 % 0.00 in /  0 mm 0 W/m2
00:40 44.7 °F /  7.1 °C 42.2 °F /  5.7 °C 30.16 in /  1021.2 hPa WNW 10.0 mph /  16.1 km/h 10.0 mph /  16.1 km/h 91 % 0.00 in /  0 mm 0 W/m2
00:45 44.7 °F /  7.1 °C 41.9 °F /  5.5 °C 30.16 in /  1021.2 hPa NW 9.0 mph /  14.5 km/h 29.0 mph /  46.7 km/h 90 % 0.00 in /  0 mm 0 W/m2
00:50 44.8 °F /  7.1 °C 42.0 °F /  5.6 °C 30.16 in /  1021.2 hPa NW 10.0 mph /  16.1 km/h 29.0 mph /  46.7 km/h 90 % 0.00 in /  0 mm 0 W/m2
01:00 44.7 °F /  7.1 °C 41.9 °F /  5.5 °C 30.16 in /  1021.2 hPa NW 9.0 mph /  14.5 km/h 9.0 mph /  14.5 km/h 90 % 0.00 in /  0 mm 0 W/m2
01:05 44.7 °F /  7.1 °C 41.9 °F /  5.5 °C 30.16 in /  1021.2 hPa WNW 9.0 mph /  14.5 km/h 29.0 mph /  46.7 km/h 90 % 0.00 in /  0 mm 0 W/m2
01:10 44.7 °F /  7.1 °C 41.9 °F /  5.5 °C 30.17 in /  1021.6 hPa NW 9.0 mph /  14.5 km/h 9.0 mph /  14.5 km/h 90 % 0.00 in /  0 mm 0 W/m2
01:15 44.7 °F /  7.1 °C 41.9 °F /  5.5 °C 30.17 in /  1021.6 hPa WNW 8.0 mph /  12.9 km/h 10.0 mph /  16.1 km/h 90 % 0.00 in /  0 mm 0 W/m2
01:20 44.6 °F /  7 °C 41.8 °F /  5.4 °C 30.17 in /  1021.6 hPa NW 8.0 mph /  12.9 km/h 29.0 mph /  46.7 km/h 90 % 0.00 in /  0 mm 0 W/m2
01:25 44.6 °F /  7 °C 41.8 °F /  5.4 °C 30.17 in /  1021.6 hPa NW 9.0 mph /  14.5 km/h 29.0 mph /  46.7 km/h 90 % 0.00 in /  0 mm 0 W/m2
01:30 44.5 °F /  6.9 °C 41.7 °F /  5.4 °C 30.17 in /  1021.6 hPa NW 10.0 mph /  16.1 km/h 10.0 mph /  16.1 km/h 90 % 0.00 in /  0 mm 0 W/m2
01:40 44.5 °F /  6.9 °C 41.5 °F /  5.3 °C 30.18 in /  1021.9 hPa NW 9.0 mph /  14.5 km/h 29.0 mph /  46.7 km/h 89 % 0.00 in /  0 mm 0 W/m2
01:45 44.5 °F /  6.9 °C 41.5 °F /  5.3 °C 30.18 in /  1021.9 hPa NW 8.0 mph /  12.9 km/h 29.0 mph /  46.7 km/h 89 % 0.00 in /  0 mm 0 W/m2
01:50 44.4 °F /  6.9 °C 41.4 °F /  5.2 °C 30.18 in /  1021.9 hPa NW 8.0 mph /  12.9 km/h 29.0 mph /  46.7 km/h 89 % 0.00 in /  0 mm 0 W/m2
01:55 44.3 °F /  6.8 °C 41.3 °F /  5.2 °C 30.19 in /  1022.2 hPa WNW 8.0 mph /  12.9 km/h 29.0 mph /  46.7 km/h 89 % 0.00 in /  0 mm 0 W/m2
02:00 44.2 °F /  6.8 °C 40.9 °F /  4.9 °C 30.18 in /  1021.9 hPa NW 7.0 mph /  11.3 km/h 7.0 mph /  11.3 km/h 88 % 0.00 in /  0 mm 0 W/m2
02:05 44.1 °F /  6.7 °C 40.8 °F /  4.9 °C 30.18 in /  1021.9 hPa NW 6.0 mph /  9.7 km/h 29.0 mph /  46.7 km/h 88 % 0.00 in /  0 mm 0 W/m2
02:15 43.7 °F /  6.5 °C 40.4 °F /  4.7 °C 30.19 in /  1022.2 hPa NW 6.0 mph /  9.7 km/h 29.0 mph /  46.7 km/h 88 % 0.00 in /  0 mm 0 W/m2
02:25 43.5 °F /  6.4 °C 40.2 °F /  4.6 °C 30.19 in /  1022.2 hPa West 6.0 mph /  9.7 km/h 29.0 mph /  46.7 km/h 88 % 0.00 in /  0 mm 0 W/m2
02:30 43.5 °F /  6.4 °C 40.5 °F /  4.7 °C 30.19 in /  1022.2 hPa WNW 6.0 mph /  9.7 km/h 29.0 mph /  46.7 km/h 89 % 0.00 in /  0 mm 0 W/m2
02:35 43.7 °F /  6.5 °C 40.7 °F /  4.8 °C 30.19 in /  1022.2 hPa NW 6.0 mph /  9.7 km/h 29.0 mph /  46.7 km/h 89 % 0.00 in /  0 mm 0 W/m2
02:40 43.8 °F /  6.6 °C 40.5 °F /  4.7 °C 30.19 in /  1022.2 hPa NW 6.0 mph /  9.7 km/h 6.0 mph /  9.7 km/h 88 % 0.00 in /  0 mm 0 W/m2
02:50 43.8 °F /  6.6 °C 40.5 °F /  4.7 °C 30.20 in /  1022.6 hPa NW 3.0 mph /  4.8 km/h 29.0 mph /  46.7 km/h 88 % 0.00 in /  0 mm 0 W/m2
02:55 43.9 °F /  6.6 °C 40.6 °F /  4.8 °C 30.21 in /  1022.9 hPa North 4.0 mph /  6.4 km/h 29.0 mph /  46.7 km/h 88 % 0.00 in /  0 mm 0 W/m2
03:00 43.9 °F /  6.6 °C 40.3 °F /  4.6 °C 30.21 in /  1022.9 hPa NNW 4.0 mph /  6.4 km/h 29.0 mph /  46.7 km/h 87 % 0.00 in /  0 mm 0 W/m2
03:05 44.0 °F /  6.7 °C 40.4 °F /  4.7 °C 30.21 in /  1022.9 hPa NNW 3.0 mph /  4.8 km/h 29.0 mph /  46.7 km/h 87 % 0.00 in /  0 mm 0 W/m2
03:10 44.0 °F /  6.7 °C 40.4 °F /  4.7 °C 30.22 in /  1023.2 hPa NNW 2.0 mph /  3.2 km/h 2.0 mph /  3.2 km/h 87 % 0.00 in /  0 mm 0 W/m2
03:15 43.9 °F /  6.6 °C 40.3 °F /  4.6 °C 30.22 in /  1023.2 hPa NNE 2.0 mph /  3.2 km/h 29.0 mph /  46.7 km/h 87 % 0.00 in /  0 mm 0 W/m2
03:25 43.7 °F /  6.5 °C 39.2 °F /  4 °C 30.23 in /  1023.6 hPa NNW 5.0 mph /  8 km/h 29.0 mph /  46.7 km/h 84 % 0.00 in /  0 mm 0 W/m2
03:30 43.5 °F /  6.4 °C 38.7 °F /  3.7 °C 30.23 in /  1023.6 hPa NNE 7.0 mph /  11.3 km/h 29.0 mph /  46.7 km/h 83 % 0.00 in /  0 mm 0 W/m2
03:35 43.3 °F /  6.3 °C 38.5 °F /  3.6 °C 30.23 in /  1023.6 hPa NNE 9.0 mph /  14.5 km/h 29.0 mph /  46.7 km/h 83 % 0.00 in /  0 mm 0 W/m2
03:40 43.2 °F /  6.2 °C 38.1 °F /  3.4 °C 30.23 in /  1023.6 hPa North 8.0 mph /  12.9 km/h 8.0 mph /  12.9 km/h 82 % 0.00 in /  0 mm 7 W/m2
03:45 43.1 °F /  6.2 °C 38.3 °F /  3.5 °C 30.23 in /  1023.6 hPa North 6.0 mph /  9.7 km/h 29.0 mph /  46.7 km/h 83 % 0.00 in /  0 mm 7 W/m2
03:50 43.0 °F /  6.1 °C 38.2 °F /  3.4 °C 30.24 in /  1023.9 hPa North 5.0 mph /  8 km/h 5.0 mph /  8 km/h 83 % 0.00 in /  0 mm 11 W/m2
04:00 42.8 °F /  6 °C 37.7 °F /  3.2 °C 30.24 in /  1023.9 hPa NNE 7.0 mph /  11.3 km/h 7.0 mph /  11.3 km/h 82 % 0.00 in /  0 mm 23 W/m2
04:05 42.7 °F /  5.9 °C 37.6 °F /  3.1 °C 30.25 in /  1024.3 hPa NNE 6.0 mph /  9.7 km/h 29.0 mph /  46.7 km/h 82 % 0.00 in /  0 mm 14 W/m2
04:10 42.7 °F /  5.9 °C 37.6 °F /  3.1 °C 30.25 in /  1024.3 hPa NNE 6.0 mph /  9.7 km/h 29.0 mph /  46.7 km/h 82 % 0.00 in /  0 mm 18 W/m2
04:15 42.6 °F /  5.9 °C 37.5 °F /  3.1 °C 30.25 in /  1024.3 hPa NNE 5.0 mph /  8 km/h 29.0 mph /  46.7 km/h 82 % 0.00 in /  0 mm 25 W/m2
04:20 42.5 °F /  5.8 °C 37.1 °F /  2.8 °C 30.25 in /  1024.3 hPa NNE 4.0 mph /  6.4 km/h 29.0 mph /  46.7 km/h 81 % 0.00 in /  0 mm 42 W/m2
04:25 42.4 °F /  5.8 °C 37.0 °F /  2.8 °C 30.25 in /  1024.3 hPa NNE 4.0 mph /  6.4 km/h 29.0 mph /  46.7 km/h 81 % 0.00 in /  0 mm 25 W/m2
04:35 42.4 °F /  5.8 °C 37.0 °F /  2.8 °C 30.25 in /  1024.3 hPa North 4.0 mph /  6.4 km/h 29.0 mph /  46.7 km/h 81 % 0.00 in /  0 mm 28 W/m2
04:45 42.3 °F /  5.7 °C 36.6 °F /  2.6 °C 30.26 in /  1024.6 hPa NNW 2.0 mph /  3.2 km/h 4.0 mph /  6.4 km/h 80 % 0.00 in /  0 mm 28 W/m2
04:50 42.3 °F /  5.7 °C 36.6 °F /  2.6 °C 30.26 in /  1024.6 hPa NNW 2.0 mph /  3.2 km/h 29.0 mph /  46.7 km/h 80 % 0.00 in /  0 mm 30 W/m2
04:55 42.3 °F /  5.7 °C 36.6 °F /  2.6 °C 30.26 in /  1024.6 hPa ENE 2.0 mph /  3.2 km/h 29.0 mph /  46.7 km/h 80 % 0.00 in /  0 mm 30 W/m2
05:00 42.2 °F /  5.7 °C 36.5 °F /  2.5 °C 30.26 in /  1024.6 hPa NE 2.0 mph /  3.2 km/h 29.0 mph /  46.7 km/h 80 % 0.00 in /  0 mm 46 W/m2
05:05 42.3 °F /  5.7 °C 36.6 °F /  2.6 °C 30.27 in /  1024.9 hPa NNE 3.0 mph /  4.8 km/h 29.0 mph /  46.7 km/h 80 % 0.00 in /  0 mm 51 W/m2
05:10 42.3 °F /  5.7 °C 36.6 °F /  2.6 °C 30.27 in /  1024.9 hPa NNE 4.0 mph /  6.4 km/h 29.0 mph /  46.7 km/h 80 % 0.00 in /  0 mm 60 W/m2
05:20 42.3 °F /  5.7 °C 36.6 °F /  2.6 °C 30.27 in /  1024.9 hPa North 5.0 mph /  8 km/h 29.0 mph /  46.7 km/h 80 % 0.00 in /  0 mm 58 W/m2
05:25 42.3 °F /  5.7 °C 36.6 °F /  2.6 °C 30.27 in /  1024.9 hPa NNE 5.0 mph /  8 km/h 29.0 mph /  46.7 km/h 80 % 0.00 in /  0 mm 63 W/m2
05:30 42.4 °F /  5.8 °C 36.7 °F /  2.6 °C 30.27 in /  1024.9 hPa NNE 5.0 mph /  8 km/h 29.0 mph /  46.7 km/h 80 % 0.00 in /  0 mm 54 W/m2
05:35 42.4 °F /  5.8 °C 36.7 °F /  2.6 °C 30.27 in /  1024.9 hPa North 5.0 mph /  8 km/h 29.0 mph /  46.7 km/h 80 % 0.00 in /  0 mm 44 W/m2
05:40 42.4 °F /  5.8 °C 36.3 °F /  2.4 °C 30.28 in /  1025.3 hPa NNW 4.0 mph /  6.4 km/h 29.0 mph /  46.7 km/h 79 % 0.00 in /  0 mm 40 W/m2
05:45 42.4 °F /  5.8 °C 36.0 °F /  2.2 °C 30.28 in /  1025.3 hPa NNE 5.0 mph /  8 km/h 29.0 mph /  46.7 km/h 78 % 0.00 in /  0 mm 62 W/m2
05:50 42.2 °F /  5.7 °C 34.8 °F /  1.6 °C 30.28 in /  1025.3 hPa North 6.0 mph /  9.7 km/h 6.0 mph /  9.7 km/h 75 % 0.00 in /  0 mm 40 W/m2
06:00 41.9 °F /  5.5 °C 33.9 °F /  1.1 °C 30.28 in /  1025.3 hPa North 6.0 mph /  9.7 km/h 29.0 mph /  46.7 km/h 73 % 0.00 in /  0 mm 193 W/m2
06:05 41.9 °F /  5.5 °C 33.5 °F /  0.8 °C 30.29 in /  1025.6 hPa NNE 7.0 mph /  11.3 km/h 29.0 mph /  46.7 km/h 72 % 0.00 in /  0 mm 206 W/m2
06:10 42.2 °F /  5.7 °C 34.2 °F /  1.2 °C 30.29 in /  1025.6 hPa North 8.0 mph /  12.9 km/h 8.0 mph /  12.9 km/h 73 % 0.00 in /  0 mm 213 W/m2
06:15 42.5 °F /  5.8 °C 34.1 °F /  1.2 °C 30.29 in /  1025.6 hPa NNE 7.0 mph /  11.3 km/h 29.0 mph /  46.7 km/h 72 % 0.00 in /  0 mm 236 W/m2
06:20 42.7 °F /  5.9 °C 34.3 °F /  1.3 °C 30.29 in /  1025.6 hPa NNE 6.0 mph /  9.7 km/h 29.0 mph /  46.7 km/h 72 % 0.00 in /  0 mm 311 W/m2
06:25 43.0 °F /  6.1 °C 34.6 °F /  1.4 °C 30.29 in /  1025.6 hPa NNE 6.0 mph /  9.7 km/h 29.0 mph /  46.7 km/h 72 % 0.00 in /  0 mm 225 W/m2
06:35 43.2 °F /  6.2 °C 35.1 °F /  1.7 °C 30.29 in /  1025.6 hPa NNW 6.0 mph /  9.7 km/h 29.0 mph /  46.7 km/h 73 % 0.00 in /  0 mm 54 W/m2
06:40 43.0 °F /  6.1 °C 33.9 °F /  1.1 °C 30.29 in /  1025.6 hPa North 7.0 mph /  11.3 km/h 29.0 mph /  46.7 km/h 70 % 0.00 in /  0 mm 49 W/m2
06:45 42.6 °F /  5.9 °C 32.8 °F /  0.4 °C 30.30 in /  1026 hPa NNW 9.0 mph /  14.5 km/h 29.0 mph /  46.7 km/h 68 % 0.00 in /  0 mm 51 W/m2
06:50 42.4 °F /  5.8 °C 32.6 °F /  0.3 °C 30.30 in /  1026 hPa NNW 8.0 mph /  12.9 km/h 8.0 mph /  12.9 km/h 68 % 0.00 in /  0 mm 144 W/m2
06:55 42.4 °F /  5.8 °C 31.8 °F /  -0.1 °C 30.30 in /  1026 hPa NNW 8.0 mph /  12.9 km/h 10.0 mph /  16.1 km/h 66 % 0.00 in /  0 mm 236 W/m2
07:00 42.6 °F /  5.9 °C 30.9 °F /  -0.6 °C 30.30 in /  1026 hPa North 8.0 mph /  12.9 km/h 8.0 mph /  12.9 km/h 63 % 0.00 in /  0 mm 239 W/m2
07:05 42.8 °F /  6 °C 30.7 °F /  -0.7 °C 30.30 in /  1026 hPa NNW 9.0 mph /  14.5 km/h 12.0 mph /  19.3 km/h 62 % 0.00 in /  0 mm 223 W/m2
07:10 43.0 °F /  6.1 °C 30.9 °F /  -0.6 °C 30.31 in /  1026.3 hPa North 8.0 mph /  12.9 km/h 8.0 mph /  12.9 km/h 62 % 0.00 in /  0 mm 237 W/m2
07:20 43.0 °F /  6.1 °C 30.9 °F /  -0.6 °C 30.31 in /  1026.3 hPa North 8.0 mph /  12.9 km/h 8.0 mph /  12.9 km/h 62 % 0.00 in /  0 mm 239 W/m2
07:30 43.4 °F /  6.3 °C 30.8 °F /  -0.7 °C 30.30 in /  1026 hPa NNW 7.0 mph /  11.3 km/h 29.0 mph /  46.7 km/h 61 % 0.00 in /  0 mm 239 W/m2
07:35 43.4 °F /  6.3 °C 30.4 °F /  -0.9 °C 30.30 in /  1026 hPa NNW 9.0 mph /  14.5 km/h 29.0 mph /  46.7 km/h 60 % 0.00 in /  0 mm 237 W/m2
07:40 43.5 °F /  6.4 °C 30.5 °F /  -0.8 °C 30.30 in /  1026 hPa NW 8.0 mph /  12.9 km/h 29.0 mph /  46.7 km/h 60 % 0.00 in /  0 mm 243 W/m2
07:50 43.6 °F /  6.4 °C 30.2 °F /  -1 °C 30.30 in /  1026 hPa NNW 9.0 mph /  14.5 km/h 9.0 mph /  14.5 km/h 59 % 0.00 in /  0 mm 236 W/m2
07:55 43.7 °F /  6.5 °C 30.3 °F /  -0.9 °C 30.30 in /  1026 hPa NW 9.0 mph /  14.5 km/h 29.0 mph /  46.7 km/h 59 % 0.00 in /  0 mm 230 W/m2
08:00 43.7 °F /  6.5 °C 30.7 °F /  -0.7 °C 30.30 in /  1026 hPa NNW 7.0 mph /  11.3 km/h 29.0 mph /  46.7 km/h 60 % 0.00 in /  0 mm 230 W/m2
08:05 43.8 °F /  6.6 °C 30.8 °F /  -0.7 °C 30.30 in /  1026 hPa NNW 7.0 mph /  11.3 km/h 29.0 mph /  46.7 km/h 60 % 0.00 in /  0 mm 225 W/m2
08:10 43.8 °F /  6.6 °C 30.4 °F /  -0.9 °C 30.30 in /  1026 hPa NNW 8.0 mph /  12.9 km/h 8.0 mph /  12.9 km/h 59 % 0.00 in /  0 mm 218 W/m2
08:15 43.8 °F /  6.6 °C 30.4 °F /  -0.9 °C 30.30 in /  1026 hPa NNW 8.0 mph /  12.9 km/h 29.0 mph /  46.7 km/h 59 % 0.00 in /  0 mm 220 W/m2
08:25 43.8 °F /  6.6 °C 30.0 °F /  -1.1 °C 30.31 in /  1026.3 hPa North 9.0 mph /  14.5 km/h 29.0 mph /  46.7 km/h 58 % 0.00 in /  0 mm 202 W/m2
08:30 43.7 °F /  6.5 °C 29.9 °F /  -1.2 °C 30.31 in /  1026.3 hPa North 9.0 mph /  14.5 km/h 9.0 mph /  14.5 km/h 58 % 0.00 in /  0 mm 202 W/m2
08:35 43.6 °F /  6.4 °C 30.2 °F /  -1 °C 30.31 in /  1026.3 hPa NW 9.0 mph /  14.5 km/h 29.0 mph /  46.7 km/h 59 % 0.00 in /  0 mm 197 W/m2
08:40 43.6 °F /  6.4 °C 30.2 °F /  -1 °C 30.31 in /  1026.3 hPa NW 8.0 mph /  12.9 km/h 8.0 mph /  12.9 km/h 59 % 0.00 in /  0 mm 188 W/m2
08:45 43.8 °F /  6.6 °C 30.8 °F /  -0.7 °C 30.31 in /  1026.3 hPa NW 7.0 mph /  11.3 km/h 29.0 mph /  46.7 km/h 60 % 0.00 in /  0 mm 183 W/m2
08:50 43.9 °F /  6.6 °C 30.5 °F /  -0.8 °C 30.31 in /  1026.3 hPa NW 5.0 mph /  8 km/h 29.0 mph /  46.7 km/h 59 % 0.00 in /  0 mm 179 W/m2
09:00 44.0 °F /  6.7 °C 30.2 °F /  -1 °C 30.31 in /  1026.3 hPa North 5.0 mph /  8 km/h 29.0 mph /  46.7 km/h 58 % 0.00 in /  0 mm 165 W/m2
09:05 43.9 °F /  6.6 °C 30.1 °F /  -1.1 °C 30.31 in /  1026.3 hPa NW 5.0 mph /  8 km/h 29.0 mph /  46.7 km/h 58 % 0.00 in /  0 mm 158 W/m2
09:10 43.9 °F /  6.6 °C 29.6 °F /  -1.3 °C 30.31 in /  1026.3 hPa NNW 5.0 mph /  8 km/h 5.0 mph /  8 km/h 57 % 0.00 in /  0 mm 153 W/m2
09:15 43.8 °F /  6.6 °C 30.0 °F /  -1.1 °C 30.31 in /  1026.3 hPa NNW 5.0 mph /  8 km/h 29.0 mph /  46.7 km/h 58 % 0.00 in /  0 mm 141 W/m2
09:20 43.8 °F /  6.6 °C 30.4 °F /  -0.9 °C 30.32 in /  1026.6 hPa NW 4.0 mph /  6.4 km/h 29.0 mph /  46.7 km/h 59 % 0.00 in /  0 mm 144 W/m2
09:25 43.8 °F /  6.6 °C 30.0 °F /  -1.1 °C 30.32 in /  1026.6 hPa NNW 4.0 mph /  6.4 km/h 29.0 mph /  46.7 km/h 58 % 0.00 in /  0 mm 151 W/m2
09:35 43.6 °F /  6.4 °C 29.8 °F /  -1.2 °C 30.32 in /  1026.6 hPa NNW 6.0 mph /  9.7 km/h 29.0 mph /  46.7 km/h 58 % 0.00 in /  0 mm 116 W/m2
09:40 43.5 °F /  6.4 °C 29.7 °F /  -1.3 °C 30.32 in /  1026.6 hPa NNW 6.0 mph /  9.7 km/h 29.0 mph /  46.7 km/h 58 % 0.00 in /  0 mm 121 W/m2
09:45 43.3 °F /  6.3 °C 29.5 °F /  -1.4 °C 30.32 in /  1026.6 hPa North 7.0 mph /  11.3 km/h 29.0 mph /  46.7 km/h 58 % 0.00 in /  0 mm 113 W/m2
09:50 43.1 °F /  6.2 °C 29.7 °F /  -1.3 °C 30.32 in /  1026.6 hPa NNW 7.0 mph /  11.3 km/h 7.0 mph /  11.3 km/h 59 % 0.00 in /  0 mm 104 W/m2
09:55 42.9 °F /  6.1 °C 30.0 °F /  -1.1 °C 30.32 in /  1026.6 hPa NNW 6.0 mph /  9.7 km/h 29.0 mph /  46.7 km/h 60 % 0.00 in /  0 mm 100 W/m2
10:05 42.7 °F /  5.9 °C 30.2 °F /  -1 °C 30.32 in /  1026.6 hPa NNW 6.0 mph /  9.7 km/h 29.0 mph /  46.7 km/h 61 % 0.00 in /  0 mm 67 W/m2
10:10 42.5 °F /  5.8 °C 30.0 °F /  -1.1 °C 30.32 in /  1026.6 hPa NNW 6.0 mph /  9.7 km/h 29.0 mph /  46.7 km/h 61 % 0.00 in /  0 mm 33 W/m2
10:15 42.3 °F /  5.7 °C 29.8 °F /  -1.2 °C 30.32 in /  1026.6 hPa North 7.0 mph /  11.3 km/h 29.0 mph /  46.7 km/h 61 % 0.00 in /  0 mm 23 W/m2
10:20 42.1 °F /  5.6 °C 29.6 °F /  -1.3 °C 30.33 in /  1027 hPa North 8.0 mph /  12.9 km/h 29.0 mph /  46.7 km/h 61 % 0.00 in /  0 mm 23 W/m2
10:25 41.8 °F /  5.4 °C 29.7 °F /  -1.3 °C 30.33 in /  1027 hPa NNW 8.0 mph /  12.9 km/h 29.0 mph /  46.7 km/h 62 % 0.00 in /  0 mm 19 W/m2
10:30 41.6 °F /  5.3 °C 29.5 °F /  -1.4 °C 30.33 in /  1027 hPa North 8.0 mph /  12.9 km/h 29.0 mph /  46.7 km/h 62 % 0.00 in /  0 mm 21 W/m2
10:35 41.4 °F /  5.2 °C 29.7 °F /  -1.3 °C 30.33 in /  1027 hPa NW 7.0 mph /  11.3 km/h 29.0 mph /  46.7 km/h 63 % 0.00 in /  0 mm 18 W/m2
10:45 40.9 °F /  4.9 °C 29.7 °F /  -1.3 °C 30.34 in /  1027.3 hPa NNW 6.0 mph /  9.7 km/h 29.0 mph /  46.7 km/h 64 % 0.00 in /  0 mm 11 W/m2
10:50 40.8 °F /  4.9 °C 29.6 °F /  -1.3 °C 30.34 in /  1027.3 hPa NNE 7.0 mph /  11.3 km/h 7.0 mph /  11.3 km/h 64 % 0.00 in /  0 mm 7 W/m2
10:55 40.8 °F /  4.9 °C 29.9 °F /  -1.2 °C 30.34 in /  1027.3 hPa NNW 6.0 mph /  9.7 km/h 29.0 mph /  46.7 km/h 65 % 0.00 in /  0 mm 5 W/m2
11:00 40.7 °F /  4.8 °C 29.8 °F /  -1.2 °C 30.34 in /  1027.3 hPa NNW 6.0 mph /  9.7 km/h 29.0 mph /  46.7 km/h 65 % 0.00 in /  0 mm 0 W/m2
11:05 40.7 °F /  4.8 °C 29.8 °F /  -1.2 °C 30.34 in /  1027.3 hPa NNW 6.0 mph /  9.7 km/h 29.0 mph /  46.7 km/h 65 % 0.00 in /  0 mm 0 W/m2
11:10 40.6 °F /  4.8 °C 29.7 °F /  -1.3 °C 30.34 in /  1027.3 hPa NW 6.0 mph /  9.7 km/h 29.0 mph /  46.7 km/h 65 % 0.00 in /  0 mm 0 W/m2
11:20 40.3 °F /  4.6 °C 29.5 °F /  -1.4 °C 30.35 in /  1027.7 hPa NNW 6.0 mph /  9.7 km/h 29.0 mph /  46.7 km/h 65 % 0.00 in /  0 mm 0 W/m2
11:25 40.2 °F /  4.6 °C 29.7 °F /  -1.3 °C 30.35 in /  1027.7 hPa NNW 5.0 mph /  8 km/h 29.0 mph /  46.7 km/h 66 % 0.00 in /  0 mm 0 W/m2
11:30 40.0 °F /  4.4 °C 29.6 °F /  -1.3 °C 30.35 in /  1027.7 hPa NW 5.0 mph /  8 km/h 29.0 mph /  46.7 km/h 66 % 0.00 in /  0 mm 0 W/m2
11:35 39.9 °F /  4.4 °C 29.5 °F /  -1.4 °C 30.35 in /  1027.7 hPa NW 5.0 mph /  8 km/h 29.0 mph /  46.7 km/h 66 % 0.00 in /  0 mm 0 W/m2
11:40 39.7 °F /  4.3 °C 29.3 °F /  -1.5 °C 30.36 in /  1028 hPa North 6.0 mph /  9.7 km/h 29.0 mph /  46.7 km/h 66 % 0.00 in /  0 mm 0 W/m2
11:45 39.6 °F /  4.2 °C 29.2 °F /  -1.6 °C 30.35 in /  1027.7 hPa NNW 6.0 mph /  9.7 km/h 29.0 mph /  46.7 km/h 66 % 0.00 in /  0 mm 0 W/m2
11:50 39.6 °F /  4.2 °C 29.2 °F /  -1.6 °C 30.35 in /  1027.7 hPa North 6.0 mph /  9.7 km/h 29.0 mph /  46.7 km/h 66 % 0.00 in /  0 mm 0 W/m2
12:00 39.6 °F /  4.2 °C 29.2 °F /  -1.6 °C 30.35 in /  1027.7 hPa North 6.0 mph /  9.7 km/h 6.0 mph /  9.7 km/h 66 % 0.00 in /  0 mm 0 W/m2
12:05 39.6 °F /  4.2 °C 29.2 °F /  -1.6 °C 30.35 in /  1027.7 hPa NNW 6.0 mph /  9.7 km/h 11.0 mph /  17.7 km/h 66 % 0.00 in /  0 mm 0 W/m2
12:10 39.6 °F /  4.2 °C 29.2 °F /  -1.6 °C 30.36 in /  1028 hPa NNW 6.0 mph /  9.7 km/h 29.0 mph /  46.7 km/h 66 % 0.00 in /  0 mm 0 W/m2
12:15 39.6 °F /  4.2 °C 29.2 °F /  -1.6 °C 30.36 in /  1028 hPa NW 7.0 mph /  11.3 km/h 29.0 mph /  46.7 km/h 66 % 0.00 in /  0 mm 0 W/m2
12:20 39.5 °F /  4.2 °C 29.1 °F /  -1.6 °C 30.36 in /  1028 hPa NNW 6.0 mph /  9.7 km/h 6.0 mph /  9.7 km/h 66 % 0.00 in /  0 mm 0 W/m2
12:25 39.5 °F /  4.2 °C 29.1 °F /  -1.6 °C 30.36 in /  1028 hPa NW 6.0 mph /  9.7 km/h 29.0 mph /  46.7 km/h 66 % 0.00 in /  0 mm 0 W/m2
12:30 39.4 °F /  4.1 °C 29.0 °F /  -1.7 °C 30.36 in /  1028 hPa NNW 6.0 mph /  9.7 km/h 29.0 mph /  46.7 km/h 66 % 0.00 in /  0 mm 0 W/m2
12:35 39.4 °F /  4.1 °C 29.0 °F /  -1.7 °C 30.37 in /  1028.3 hPa NW 7.0 mph /  11.3 km/h 29.0 mph /  46.7 km/h 66 % 0.00 in /  0 mm 0 W/m2
12:40 39.4 °F /  4.1 °C 29.0 °F /  -1.7 °C 30.37 in /  1028.3 hPa NW 5.0 mph /  8 km/h 29.0 mph /  46.7 km/h 66 % 0.00 in /  0 mm 0 W/m2
12:50 39.1 °F /  3.9 °C 28.7 °F /  -1.8 °C 30.37 in /  1028.3 hPa NNW 4.0 mph /  6.4 km/h 29.0 mph /  46.7 km/h 66 % 0.00 in /  0 mm 0 W/m2
12:55 39.0 °F /  3.9 °C 28.6 °F /  -1.9 °C 30.37 in /  1028.3 hPa NNW 6.0 mph /  9.7 km/h 29.0 mph /  46.7 km/h 66 % 0.00 in /  0 mm 0 W/m2
13:00 39.0 °F /  3.9 °C 28.6 °F /  -1.9 °C 30.37 in /  1028.3 hPa NW 7.0 mph /  11.3 km/h 29.0 mph /  46.7 km/h 66 % 0.00 in /  0 mm 0 W/m2
13:05 39.0 °F /  3.9 °C 28.6 °F /  -1.9 °C 30.38 in /  1028.7 hPa NW 7.0 mph /  11.3 km/h 29.0 mph /  46.7 km/h 66 % 0.00 in /  0 mm 0 W/m2
13:10 38.9 °F /  3.8 °C 28.9 °F /  -1.7 °C 30.38 in /  1028.7 hPa NNW 6.0 mph /  9.7 km/h 29.0 mph /  46.7 km/h 67 % 0.00 in /  0 mm 0 W/m2
13:15 38.8 °F /  3.8 °C 28.8 °F /  -1.8 °C 30.38 in /  1028.7 hPa NNW 4.0 mph /  6.4 km/h 29.0 mph /  46.7 km/h 67 % 0.00 in /  0 mm 0 W/m2
13:25 38.7 °F /  3.7 °C 28.7 °F /  -1.8 °C 30.38 in /  1028.7 hPa NNW 4.0 mph /  6.4 km/h 29.0 mph /  46.7 km/h 67 % 0.00 in /  0 mm 0 W/m2
13:30 38.6 °F /  3.7 °C 28.9 °F /  -1.7 °C 30.38 in /  1028.7 hPa NNW 3.0 mph /  4.8 km/h 3.0 mph /  4.8 km/h 68 % 0.00 in /  0 mm 0 W/m2
13:35 38.4 °F /  3.6 °C 28.8 °F /  -1.8 °C 30.38 in /  1028.7 hPa NNW 1.0 mph /  1.6 km/h 29.0 mph /  46.7 km/h 68 % 0.00 in /  0 mm 0 W/m2
13:40 38.3 °F /  3.5 °C 29.0 °F /  -1.7 °C 30.39 in /  1029 hPa NW 1.0 mph /  1.6 km/h 29.0 mph /  46.7 km/h 69 % 0.00 in /  0 mm 0 W/m2
13:45 38.3 °F /  3.5 °C 29.4 °F /  -1.4 °C 30.39 in /  1029 hPa NW 2.0 mph /  3.2 km/h 29.0 mph /  46.7 km/h 70 % 0.00 in /  0 mm 0 W/m2
13:50 38.2 °F /  3.4 °C 28.9 °F /  -1.7 °C 30.39 in /  1029 hPa NW 2.0 mph /  3.2 km/h 2.0 mph /  3.2 km/h 69 % 0.00 in /  0 mm 0 W/m2
14:00 38.3 °F /  3.5 °C 29.4 °F /  -1.4 °C 30.39 in /  1029 hPa NNW 2.0 mph /  3.2 km/h 2.0 mph /  3.2 km/h 70 % 0.00 in /  0 mm 0 W/m2
14:05 38.3 °F /  3.5 °C 29.4 °F /  -1.4 °C 30.39 in /  1029 hPa NNW 2.0 mph /  3.2 km/h 4.0 mph /  6.4 km/h 70 % 0.00 in /  0 mm 0 W/m2
14:10 38.1 °F /  3.4 °C 29.2 °F /  -1.6 °C 30.39 in /  1029 hPa WNW 2.0 mph /  3.2 km/h 29.0 mph /  46.7 km/h 70 % 0.00 in /  0 mm 0 W/m2
14:15 37.9 °F /  3.3 °C 29.3 °F /  -1.5 °C 30.39 in /  1029 hPa WNW 3.0 mph /  4.8 km/h 29.0 mph /  46.7 km/h 71 % 0.00 in /  0 mm 0 W/m2
14:25 37.5 °F /  3.1 °C 29.3 °F /  -1.5 °C 30.39 in /  1029 hPa WNW 2.0 mph /  3.2 km/h 29.0 mph /  46.7 km/h 72 % 0.00 in /  0 mm 0 W/m2
14:30 37.4 °F /  3 °C 29.5 °F /  -1.4 °C 30.39 in /  1029 hPa WNW 2.0 mph /  3.2 km/h 2.0 mph /  3.2 km/h 73 % 0.00 in /  0 mm 0 W/m2
14:35 37.4 °F /  3 °C 29.5 °F /  -1.4 °C 30.39 in /  1029 hPa WNW 2.0 mph /  3.2 km/h 29.0 mph /  46.7 km/h 73 % 0.00 in /  0 mm 0 W/m2
14:40 37.4 °F /  3 °C 29.5 °F /  -1.4 °C 30.40 in /  1029.3 hPa WNW 1.0 mph /  1.6 km/h 1.0 mph /  1.6 km/h 73 % 0.00 in /  0 mm 0 W/m2
14:45 37.4 °F /  3 °C 29.9 °F /  -1.2 °C 30.40 in /  1029.3 hPa WNW 1.0 mph /  1.6 km/h 2.0 mph /  3.2 km/h 74 % 0.00 in /  0 mm 0 W/m2
14:50 37.5 °F /  3.1 °C 30.0 °F /  -1.1 °C 30.40 in /  1029.3 hPa WNW 2.0 mph /  3.2 km/h 29.0 mph /  46.7 km/h 74 % 0.00 in /  0 mm 0 W/m2
15:00 37.5 °F /  3.1 °C 30.0 °F /  -1.1 °C 30.40 in /  1029.3 hPa NNW 2.0 mph /  3.2 km/h 29.0 mph /  46.7 km/h 74 % 0.00 in /  0 mm 0 W/m2
15:05 37.6 °F /  3.1 °C 29.7 °F /  -1.3 °C 30.40 in /  1029.3 hPa NNW 2.0 mph /  3.2 km/h 29.0 mph /  46.7 km/h 73 % 0.00 in /  0 mm 0 W/m2
15:10 37.6 °F /  3.1 °C 29.7 °F /  -1.3 °C 30.40 in /  1029.3 hPa NNW 2.0 mph /  3.2 km/h 2.0 mph /  3.2 km/h 73 % 0.00 in /  0 mm 0 W/m2
15:15 37.5 °F /  3.1 °C 30.0 °F /  -1.1 °C 30.40 in /  1029.3 hPa NNW 2.0 mph /  3.2 km/h 29.0 mph /  46.7 km/h 74 % 0.00 in /  0 mm 0 W/m2
15:20 37.4 °F /  3 °C 29.9 °F /  -1.2 °C 30.40 in /  1029.3 hPa NNW 2.0 mph /  3.2 km/h 29.0 mph /  46.7 km/h 74 % 0.00 in /  0 mm 0 W/m2
15:25 37.4 °F /  3 °C 30.2 °F /  -1 °C 30.41 in /  1029.7 hPa WNW 3.0 mph /  4.8 km/h 29.0 mph /  46.7 km/h 75 % 0.00 in /  0 mm 0 W/m2
15:35 37.2 °F /  2.9 °C 30.0 °F /  -1.1 °C 30.41 in /  1029.7 hPa WNW 3.0 mph /  4.8 km/h 5.0 mph /  8 km/h 75 % 0.00 in /  0 mm 0 W/m2
15:40 37.3 °F /  2.9 °C 30.1 °F /  -1.1 °C 30.41 in /  1029.7 hPa NW 4.0 mph /  6.4 km/h 29.0 mph /  46.7 km/h 75 % 0.00 in /  0 mm 0 W/m2
15:45 37.4 °F /  3 °C 30.2 °F /  -1 °C 30.42 in /  1030 hPa NW 4.0 mph /  6.4 km/h 29.0 mph /  46.7 km/h 75 % 0.00 in /  0 mm 0 W/m2
15:50 37.4 °F /  3 °C 30.2 °F /  -1 °C 30.41 in /  1029.7 hPa NW 4.0 mph /  6.4 km/h 29.0 mph /  46.7 km/h 75 % 0.00 in /  0 mm 0 W/m2
15:55 37.5 °F /  3.1 °C 30.0 °F /  -1.1 °C 30.41 in /  1029.7 hPa WNW 4.0 mph /  6.4 km/h 29.0 mph /  46.7 km/h 74 % 0.00 in /  0 mm 0 W/m2
16:00 37.6 °F /  3.1 °C 30.1 °F /  -1.1 °C 30.42 in /  1030 hPa NW 4.0 mph /  6.4 km/h 29.0 mph /  46.7 km/h 74 % 0.00 in /  0 mm 0 W/m2
16:10 37.8 °F /  3.2 °C 29.9 °F /  -1.2 °C 30.42 in /  1030 hPa NW 5.0 mph /  8 km/h 5.0 mph /  8 km/h 73 % 0.00 in /  0 mm 0 W/m2
16:20 37.9 °F /  3.3 °C 30.0 °F /  -1.1 °C 30.42 in /  1030 hPa NW 3.0 mph /  4.8 km/h 3.0 mph /  4.8 km/h 73 % 0.00 in /  0 mm 0 W/m2
16:25 38.0 °F /  3.3 °C 30.1 °F /  -1.1 °C 30.43 in /  1030.4 hPa NW 3.0 mph /  4.8 km/h 5.0 mph /  8 km/h 73 % 0.00 in /  0 mm 0 W/m2
16:30 38.0 °F /  3.3 °C 30.1 °F /  -1.1 °C 30.43 in /  1030.4 hPa NW 4.0 mph /  6.4 km/h 29.0 mph /  46.7 km/h 73 % 0.00 in /  0 mm 0 W/m2
16:35 38.0 °F /  3.3 °C 30.1 °F /  -1.1 °C 30.43 in /  1030.4 hPa NW 5.0 mph /  8 km/h 29.0 mph /  46.7 km/h 73 % 0.00 in /  0 mm 0 W/m2
16:45 38.0 °F /  3.3 °C 30.1 °F /  -1.1 °C 30.43 in /  1030.4 hPa WNW 3.0 mph /  4.8 km/h 9.0 mph /  14.5 km/h 73 % 0.00 in /  0 mm 0 W/m2
16:50 37.9 °F /  3.3 °C 30.0 °F /  -1.1 °C 30.43 in /  1030.4 hPa NW 4.0 mph /  6.4 km/h 29.0 mph /  46.7 km/h 73 % 0.00 in /  0 mm 0 W/m2
16:55 37.7 °F /  3.2 °C 29.8 °F /  -1.2 °C 30.43 in /  1030.4 hPa NW 4.0 mph /  6.4 km/h 29.0 mph /  46.7 km/h 73 % 0.00 in /  0 mm 0 W/m2
17:00 37.5 °F /  3.1 °C 29.6 °F /  -1.3 °C 30.43 in /  1030.4 hPa NW 4.0 mph /  6.4 km/h 4.0 mph /  6.4 km/h 73 % 0.00 in /  0 mm 0 W/m2
17:05 37.3 °F /  2.9 °C 29.4 °F /  -1.4 °C 30.43 in /  1030.4 hPa NW 4.0 mph /  6.4 km/h 29.0 mph /  46.7 km/h 73 % 0.00 in /  0 mm 0 W/m2
17:10 37.1 °F /  2.8 °C 29.2 °F /  -1.6 °C 30.43 in /  1030.4 hPa NW 4.0 mph /  6.4 km/h 29.0 mph /  46.7 km/h 73 % 0.00 in /  0 mm 0 W/m2
17:20 36.8 °F /  2.7 °C 29.3 °F /  -1.5 °C 30.44 in /  1030.7 hPa NW 4.0 mph /  6.4 km/h 29.0 mph /  46.7 km/h 74 % 0.00 in /  0 mm 0 W/m2
17:25 36.7 °F /  2.6 °C 29.2 °F /  -1.6 °C 30.44 in /  1030.7 hPa NW 4.0 mph /  6.4 km/h 29.0 mph /  46.7 km/h 74 % 0.00 in /  0 mm 0 W/m2
17:30 36.6 °F /  2.6 °C 29.4 °F /  -1.4 °C 30.44 in /  1030.7 hPa NW 4.0 mph /  6.4 km/h 4.0 mph /  6.4 km/h 75 % 0.00 in /  0 mm 0 W/m2
17:35 36.6 °F /  2.6 °C 29.4 °F /  -1.4 °C 30.44 in /  1030.7 hPa NW 4.0 mph /  6.4 km/h 29.0 mph /  46.7 km/h 75 % 0.00 in /  0 mm 0 W/m2
17:40 36.6 °F /  2.6 °C 29.4 °F /  -1.4 °C 30.44 in /  1030.7 hPa NNW 3.0 mph /  4.8 km/h 3.0 mph /  4.8 km/h 75 % 0.00 in /  0 mm 0 W/m2
18:15 37.0 °F /  2.8 °C 29.5 °F /  -1.4 °C 30.44 in /  1030.7 hPa NW 4.0 mph /  6.4 km/h 29.0 mph /  46.7 km/h 74 % 0.00 in /  0 mm 0 W/m2
18:20 36.9 °F /  2.7 °C 29.4 °F /  -1.4 °C 30.45 in /  1031 hPa NW 3.0 mph /  4.8 km/h 3.0 mph /  4.8 km/h 74 % 0.00 in /  0 mm 0 W/m2
18:25 36.7 °F /  2.6 °C 29.2 °F /  -1.6 °C 30.45 in /  1031 hPa NW 3.0 mph /  4.8 km/h 29.0 mph /  46.7 km/h 74 % 0.00 in /  0 mm 0 W/m2
18:30 36.5 °F /  2.5 °C 29.0 °F /  -1.7 °C 30.45 in /  1031 hPa NW 3.0 mph /  4.8 km/h 3.0 mph /  4.8 km/h 74 % 0.00 in /  0 mm 0 W/m2
18:35 36.3 °F /  2.4 °C 29.1 °F /  -1.6 °C 30.45 in /  1031 hPa NW 4.0 mph /  6.4 km/h 4.0 mph /  6.4 km/h 75 % 0.00 in /  0 mm 0 W/m2
18:45 36.0 °F /  2.2 °C 28.8 °F /  -1.8 °C 30.46 in /  1031.4 hPa NW 3.0 mph /  4.8 km/h 29.0 mph /  46.7 km/h 75 % 0.00 in /  0 mm 0 W/m2
18:55 35.7 °F /  2.1 °C 28.9 °F /  -1.7 °C 30.46 in /  1031.4 hPa NW 5.0 mph /  8 km/h 29.0 mph /  46.7 km/h 76 % 0.00 in /  0 mm 0 W/m2
19:00 35.6 °F /  2 °C 28.8 °F /  -1.8 °C 30.46 in /  1031.4 hPa NW 4.0 mph /  6.4 km/h 29.0 mph /  46.7 km/h 76 % 0.00 in /  0 mm 0 W/m2
19:05 35.5 °F /  1.9 °C 28.7 °F /  -1.8 °C 30.46 in /  1031.4 hPa NW 4.0 mph /  6.4 km/h 29.0 mph /  46.7 km/h 76 % 0.00 in /  0 mm 0 W/m2
19:15 35.3 °F /  1.8 °C 28.5 °F /  -1.9 °C 30.46 in /  1031.4 hPa NW 4.0 mph /  6.4 km/h 7.0 mph /  11.3 km/h 76 % 0.00 in /  0 mm 0 W/m2
19:20 35.2 °F /  1.8 °C 28.7 °F /  -1.8 °C 30.46 in /  1031.4 hPa NW 4.0 mph /  6.4 km/h 5.0 mph /  8 km/h 77 % 0.00 in /  0 mm 0 W/m2
19:25 35.1 °F /  1.7 °C 28.6 °F /  -1.9 °C 30.46 in /  1031.4 hPa NW 4.0 mph /  6.4 km/h 5.0 mph /  8 km/h 77 % 0.00 in /  0 mm 0 W/m2
19:30 34.9 °F /  1.6 °C 28.4 °F /  -2 °C 30.46 in /  1031.4 hPa NW 4.0 mph /  6.4 km/h 5.0 mph /  8 km/h 77 % 0.00 in /  0 mm 0 W/m2
19:35 34.9 °F /  1.6 °C 28.4 °F /  -2 °C 30.46 in /  1031.4 hPa NW 4.0 mph /  6.4 km/h 5.0 mph /  8 km/h 77 % 0.00 in /  0 mm 0 W/m2
19:40 34.8 °F /  1.6 °C 28.3 °F /  -2.1 °C 30.46 in /  1031.4 hPa NW 3.0 mph /  4.8 km/h 3.0 mph /  4.8 km/h 77 % 0.00 in /  0 mm 0 W/m2
19:50 34.5 °F /  1.4 °C 28.3 °F /  -2.1 °C 30.46 in /  1031.4 hPa NW 3.0 mph /  4.8 km/h 3.0 mph /  4.8 km/h 78 % 0.00 in /  0 mm 0 W/m2
20:00 34.3 °F /  1.3 °C 28.2 °F /  -2.1 °C 30.46 in /  1031.4 hPa NW 4.0 mph /  6.4 km/h 4.0 mph /  6.4 km/h 78 % 0.00 in /  0 mm 0 W/m2
20:05 34.2 °F /  1.2 °C 28.4 °F /  -2 °C 30.46 in /  1031.4 hPa NW 3.0 mph /  4.8 km/h 8.0 mph /  12.9 km/h 79 % 0.00 in /  0 mm 0 W/m2
20:10 34.2 °F /  1.2 °C 28.4 °F /  -2 °C 30.47 in /  1031.7 hPa NW 2.0 mph /  3.2 km/h 8.0 mph /  12.9 km/h 79 % 0.00 in /  0 mm 0 W/m2
20:15 34.1 °F /  1.2 °C 28.3 °F /  -2.1 °C 30.47 in /  1031.7 hPa NW 2.0 mph /  3.2 km/h 8.0 mph /  12.9 km/h 79 % 0.00 in /  0 mm 0 W/m2
20:25 34.1 °F /  1.2 °C 28.6 °F /  -1.9 °C 30.47 in /  1031.7 hPa NW 2.0 mph /  3.2 km/h 8.0 mph /  12.9 km/h 80 % 0.00 in /  0 mm 0 W/m2
20:30 34.1 °F /  1.2 °C 28.6 °F /  -1.9 °C 30.47 in /  1031.7 hPa NW 1.0 mph /  1.6 km/h 8.0 mph /  12.9 km/h 80 % 0.00 in /  0 mm 0 W/m2
20:35 34.0 °F /  1.1 °C 28.5 °F /  -1.9 °C 30.47 in /  1031.7 hPa NW 1.0 mph /  1.6 km/h 8.0 mph /  12.9 km/h 80 % 0.00 in /  0 mm 0 W/m2
20:40 33.9 °F /  1.1 °C 28.4 °F /  -2 °C 30.47 in /  1031.7 hPa NW 2.0 mph /  3.2 km/h 8.0 mph /  12.9 km/h 80 % 0.00 in /  0 mm 0 W/m2
20:45 34.0 °F /  1.1 °C 28.8 °F /  -1.8 °C 30.47 in /  1031.7 hPa NW 2.0 mph /  3.2 km/h 8.0 mph /  12.9 km/h 81 % 0.00 in /  0 mm 0 W/m2
20:50 34.0 °F /  1.1 °C 28.5 °F /  -1.9 °C 30.47 in /  1031.7 hPa NW 2.0 mph /  3.2 km/h 8.0 mph /  12.9 km/h 80 % 0.00 in /  0 mm 0 W/m2
21:00 34.2 °F /  1.2 °C 28.7 °F /  -1.8 °C 30.47 in /  1031.7 hPa WNW 4.0 mph /  6.4 km/h 4.0 mph /  6.4 km/h 80 % 0.00 in /  0 mm 0 W/m2
21:05 34.2 °F /  1.2 °C 28.7 °F /  -1.8 °C 30.47 in /  1031.7 hPa NW 3.0 mph /  4.8 km/h 8.0 mph /  12.9 km/h 80 % 0.00 in /  0 mm 0 W/m2
21:10 34.0 °F /  1.1 °C 28.5 °F /  -1.9 °C 30.47 in /  1031.7 hPa NW 2.0 mph /  3.2 km/h 8.0 mph /  12.9 km/h 80 % 0.00 in /  0 mm 0 W/m2
21:15 33.9 °F /  1.1 °C 28.4 °F /  -2 °C 30.48 in /  1032.1 hPa NW 2.0 mph /  3.2 km/h 8.0 mph /  12.9 km/h 80 % 0.00 in /  0 mm 0 W/m2
21:20 33.7 °F /  0.9 °C 28.2 °F /  -2.1 °C 30.48 in /  1032.1 hPa NW 2.0 mph /  3.2 km/h 8.0 mph /  12.9 km/h 80 % 0.00 in /  0 mm 0 W/m2
21:25 33.7 °F /  0.9 °C 28.5 °F /  -1.9 °C 30.48 in /  1032.1 hPa NW 3.0 mph /  4.8 km/h 8.0 mph /  12.9 km/h 81 % 0.00 in /  0 mm 0 W/m2
21:35 33.6 °F /  0.9 °C 28.4 °F /  -2 °C 30.48 in /  1032.1 hPa NW 4.0 mph /  6.4 km/h 8.0 mph /  12.9 km/h 81 % 0.00 in /  0 mm 0 W/m2
21:40 33.5 °F /  0.8 °C 28.3 °F /  -2.1 °C 30.48 in /  1032.1 hPa WNW 3.0 mph /  4.8 km/h 8.0 mph /  12.9 km/h 81 % 0.00 in /  0 mm 0 W/m2
21:45 33.5 °F /  0.8 °C 28.3 °F /  -2.1 °C 30.48 in /  1032.1 hPa NW 3.0 mph /  4.8 km/h 8.0 mph /  12.9 km/h 81 % 0.00 in /  0 mm 0 W/m2
21:50 33.5 °F /  0.8 °C 28.3 °F /  -2.1 °C 30.48 in /  1032.1 hPa NW 3.0 mph /  4.8 km/h 8.0 mph /  12.9 km/h 81 % 0.00 in /  0 mm 0 W/m2
21:55 33.6 °F /  0.9 °C 28.4 °F /  -2 °C 30.49 in /  1032.4 hPa NW 3.0 mph /  4.8 km/h 8.0 mph /  12.9 km/h 81 % 0.00 in /  0 mm 0 W/m2
22:00 33.8 °F /  1 °C 28.6 °F /  -1.9 °C 30.49 in /  1032.4 hPa NW 1.0 mph /  1.6 km/h 8.0 mph /  12.9 km/h 81 % 0.00 in /  0 mm 0 W/m2
22:10 33.9 °F /  1.1 °C 28.4 °F /  -2 °C 30.49 in /  1032.4 hPa NW 2.0 mph /  3.2 km/h 8.0 mph /  12.9 km/h 80 % 0.00 in /  0 mm 0 W/m2
22:15 33.9 °F /  1.1 °C 28.7 °F /  -1.8 °C 30.49 in /  1032.4 hPa NW 2.0 mph /  3.2 km/h 8.0 mph /  12.9 km/h 81 % 0.00 in /  0 mm 0 W/m2
22:20 33.9 °F /  1.1 °C 28.7 °F /  -1.8 °C 30.49 in /  1032.4 hPa NW 1.0 mph /  1.6 km/h 8.0 mph /  12.9 km/h 81 % 0.00 in /  0 mm 0 W/m2
22:25 33.8 °F /  1 °C 28.6 °F /  -1.9 °C 30.49 in /  1032.4 hPa NW 1.0 mph /  1.6 km/h 8.0 mph /  12.9 km/h 81 % 0.00 in /  0 mm 0 W/m2
22:30 33.8 °F /  1 °C 28.3 °F /  -2.1 °C 30.49 in /  1032.4 hPa NW 2.0 mph /  3.2 km/h 2.0 mph /  3.2 km/h 80 % 0.00 in /  0 mm 0 W/m2
22:35 33.6 °F /  0.9 °C 28.1 °F /  -2.2 °C 30.49 in /  1032.4 hPa NW 2.0 mph /  3.2 km/h 8.0 mph /  12.9 km/h 80 % 0.00 in /  0 mm 0 W/m2
22:45 33.4 °F /  0.8 °C 27.9 °F /  -2.3 °C 30.49 in /  1032.4 hPa NW 2.0 mph /  3.2 km/h 8.0 mph /  12.9 km/h 80 % 0.00 in /  0 mm 0 W/m2
22:55 33.2 °F /  0.7 °C 28.0 °F /  -2.2 °C 30.49 in /  1032.4 hPa NW 2.0 mph /  3.2 km/h 8.0 mph /  12.9 km/h 81 % 0.00 in /  0 mm 0 W/m2
23:00 33.1 °F /  0.6 °C 27.9 °F /  -2.3 °C 30.48 in /  1032.1 hPa NW 2.0 mph /  3.2 km/h 2.0 mph /  3.2 km/h 81 % 0.00 in /  0 mm 0 W/m2
23:05 33.0 °F /  0.6 °C 27.8 °F /  -2.3 °C 30.48 in /  1032.1 hPa NW 1.0 mph /  1.6 km/h 8.0 mph /  12.9 km/h 81 % 0.00 in /  0 mm 0 W/m2
23:10 32.7 °F /  0.4 °C 27.5 °F /  -2.5 °C 30.48 in /  1032.1 hPa NW 1.0 mph /  1.6 km/h 1.0 mph /  1.6 km/h 81 % 0.00 in /  0 mm 0 W/m2
23:15 32.4 °F /  0.2 °C 27.2 °F /  -2.7 °C 30.48 in /  1032.1 hPa NW 1.0 mph /  1.6 km/h 2.0 mph /  3.2 km/h 81 % 0.00 in /  0 mm 0 W/m2
23:20 32.1 °F /  0.1 °C 27.2 °F /  -2.7 °C 30.48 in /  1032.1 hPa NW 1.0 mph /  1.6 km/h 1.0 mph /  1.6 km/h 82 % 0.00 in /  0 mm 0 W/m2
23:30 31.6 °F /  -0.2 °C 27.0 °F /  -2.8 °C 30.48 in /  1032.1 hPa NW 1.0 mph /  1.6 km/h 8.0 mph /  12.9 km/h 83 % 0.00 in /  0 mm 0 W/m2
23:35 31.3 °F /  -0.4 °C 27.0 °F /  -2.8 °C 30.48 in /  1032.1 hPa NW 2.0 mph /  3.2 km/h 8.0 mph /  12.9 km/h 84 % 0.00 in /  0 mm 0 W/m2
23:40 31.2 °F /  -0.4 °C 26.9 °F /  -2.8 °C 30.49 in /  1032.4 hPa NW 2.0 mph /  3.2 km/h 2.0 mph /  3.2 km/h 84 % 0.00 in /  0 mm 0 W/m2
23:45 31.2 °F /  -0.4 °C 26.9 °F /  -2.8 °C 30.49 in /  1032.4 hPa NW 1.0 mph /  1.6 km/h 8.0 mph /  12.9 km/h 84 % 0.00 in /  0 mm 0 W/m2
23:50 31.1 °F /  -0.5 °C 26.8 °F /  -2.9 °C 30.49 in /  1032.4 hPa NW 1.0 mph /  1.6 km/h 1.0 mph /  1.6 km/h 84 % 0.00 in /  0 mm 0 W/m2
23:55 31.0 °F /  -0.6 °C 27.0 °F /  -2.8 °C 30.49 in /  1032.4 hPa NW 1.0 mph /  1.6 km/h 8.0 mph /  12.9 km/h 85 % 0.00 in /  0 mm 0 W/m2
Delerius-Weather
Compliments of Weather Underground - 2 mb

Data updates at regular intervals.